APK1080 DNAA-DNMM
Flight info
| Callsign | APK1080 |
|---|---|
| Flight time | 0h 35m |
| Altitude | 30000 |
| Route | IKSEM1S IKSEM DCT VONUK UH340 ERSED ERSED1M |
| Aircraft | A320/M-SDE3FGHIRWY/LB1 |
Departure
| Time | 2026-05-07 19:23 |
|---|---|
| Airport | Nnamdi Azikiwe International Airport (DNAA) |
Arrival
| Time | 2026-05-07 19:58 |
|---|---|
| Airport | Murtala Muhammed International Airport (DNMM) |
| Time | Latitude | Longitude | Altitude | Speed | Heading |
|---|---|---|---|---|---|
| 2026-05-07 19:09 | 9.00573 | 7.26872 | 1121 ft | 0 kts | 76° |
| 2026-05-07 19:10 | 9.00573 | 7.26891 | 1125 ft | 0 kts | 0° |
| 2026-05-07 19:12 | 9.00551 | 7.26891 | 1122 ft | 4 kts | 0° |
| 2026-05-07 19:12 | 9.00524 | 7.26891 | 1124 ft | 4 kts | 0° |
| 2026-05-07 19:13 | 9.00497 | 7.26891 | 1124 ft | 4 kts | 0° |
| 2026-05-07 19:13 | 9.00483 | 7.26890 | 1124 ft | 1 kts | 0° |
| 2026-05-07 19:15 | 9.00485 | 7.26889 | 1124 ft | 1 kts | 341° |
| 2026-05-07 19:16 | 9.00486 | 7.26888 | 1124 ft | 0 kts | 335° |
| 2026-05-07 19:16 | 9.00474 | 7.26871 | 1116 ft | 5 kts | 198° |
| 2026-05-07 19:16 | 9.00434 | 7.26863 | 1118 ft | 10 kts | 219° |
| 2026-05-07 19:17 | 9.00403 | 7.26821 | 1125 ft | 8 kts | 170° |
| 2026-05-07 19:17 | 9.00361 | 7.26806 | 1118 ft | 5 kts | 223° |
| 2026-05-07 19:17 | 9.00343 | 7.26777 | 1121 ft | 4 kts | 238° |
| 2026-05-07 19:17 | 9.00348 | 7.26704 | 1109 ft | 15 kts | 328° |
| 2026-05-07 19:18 | 9.00437 | 7.26653 | 1110 ft | 15 kts | 330° |
| 2026-05-07 19:18 | 9.00522 | 7.26598 | 1111 ft | 16 kts | 326° |
| 2026-05-07 19:18 | 9.00599 | 7.26515 | 1106 ft | 16 kts | 299° |
| 2026-05-07 19:18 | 9.00550 | 7.26427 | 1109 ft | 17 kts | 213° |
| 2026-05-07 19:19 | 9.00445 | 7.26355 | 1107 ft | 19 kts | 214° |
| 2026-05-07 19:19 | 9.00330 | 7.26273 | 1105 ft | 21 kts | 212° |
| 2026-05-07 19:19 | 9.00200 | 7.26183 | 1103 ft | 24 kts | 215° |
| 2026-05-07 19:19 | 9.00058 | 7.26083 | 1101 ft | 26 kts | 215° |
| 2026-05-07 19:20 | 8.99904 | 7.25973 | 1103 ft | 28 kts | 214° |
| 2026-05-07 19:20 | 8.99737 | 7.25856 | 1101 ft | 30 kts | 214° |
| 2026-05-07 19:20 | 8.99664 | 7.25754 | 1096 ft | 14 kts | 293° |
| 2026-05-07 19:20 | 8.99728 | 7.25675 | 1097 ft | 15 kts | 322° |
| 2026-05-07 19:21 | 8.99781 | 7.25678 | 1095 ft | 0 kts | 49° |
| 2026-05-07 19:22 | 8.99787 | 7.25684 | 1099 ft | 7 kts | 43° |
| 2026-05-07 19:22 | 8.99941 | 7.25795 | 1102 ft | 65 kts | 34° |
| 2026-05-07 19:22 | 9.00542 | 7.26221 | 1111 ft | 143 kts | 35° |
| 2026-05-07 19:23 | 9.01485 | 7.26917 | 1438 ft | 177 kts | 38° |
| 2026-05-07 19:23 | 9.02463 | 7.27722 | 2196 ft | 185 kts | 37° |
| 2026-05-07 19:23 | 9.03529 | 7.28487 | 3041 ft | 193 kts | 34° |
| 2026-05-07 19:23 | 9.04711 | 7.29288 | 3749 ft | 214 kts | 34° |
| 2026-05-07 19:24 | 9.05997 | 7.30131 | 4367 ft | 227 kts | 27° |
| 2026-05-07 19:24 | 9.07542 | 7.30398 | 4972 ft | 230 kts | 346° |
| 2026-05-07 19:24 | 9.08899 | 7.29591 | 5613 ft | 232 kts | 308° |
| 2026-05-07 19:24 | 9.09709 | 7.28157 | 6205 ft | 240 kts | 293° |
| 2026-05-07 19:25 | 9.10277 | 7.26545 | 6791 ft | 245 kts | 289° |
| 2026-05-07 19:25 | 9.10788 | 7.24903 | 7369 ft | 251 kts | 289° |
| 2026-05-07 19:25 | 9.11334 | 7.23209 | 7964 ft | 257 kts | 290° |
| 2026-05-07 19:25 | 9.11932 | 7.21486 | 8541 ft | 262 kts | 292° |
| 2026-05-07 19:26 | 9.12576 | 7.19741 | 9137 ft | 268 kts | 293° |
| 2026-05-07 19:26 | 9.13259 | 7.17973 | 9746 ft | 273 kts | 294° |
| 2026-05-07 19:26 | 9.13910 | 7.16149 | 10315 ft | 277 kts | 282° |
| 2026-05-07 19:26 | 9.13953 | 7.14206 | 10921 ft | 278 kts | 257° |
| 2026-05-07 19:27 | 9.13256 | 7.12376 | 11373 ft | 284 kts | 232° |
| 2026-05-07 19:27 | 9.11898 | 7.10895 | 11731 ft | 293 kts | 216° |
| 2026-05-07 19:27 | 9.10310 | 7.09509 | 12058 ft | 310 kts | 217° |
| 2026-05-07 19:27 | 9.08639 | 7.08041 | 12381 ft | 327 kts | 218° |
| 2026-05-07 19:28 | 9.06886 | 7.06492 | 12683 ft | 343 kts | 218° |
| 2026-05-07 19:28 | 9.05052 | 7.04862 | 12969 ft | 360 kts | 218° |
| 2026-05-07 19:28 | 9.03145 | 7.03158 | 13366 ft | 371 kts | 218° |
| 2026-05-07 19:28 | 9.01194 | 7.01409 | 13942 ft | 375 kts | 219° |
| 2026-05-07 19:29 | 8.99243 | 6.99658 | 14528 ft | 378 kts | 219° |
| 2026-05-07 19:29 | 8.97265 | 6.97882 | 15110 ft | 380 kts | 219° |
| 2026-05-07 19:29 | 8.95281 | 6.96104 | 15680 ft | 382 kts | 219° |
| 2026-05-07 19:29 | 8.93312 | 6.94342 | 16242 ft | 385 kts | 220° |
| 2026-05-07 19:30 | 8.91297 | 6.92541 | 16799 ft | 387 kts | 220° |
| 2026-05-07 19:30 | 8.89273 | 6.90733 | 17353 ft | 390 kts | 220° |
| 2026-05-07 19:30 | 8.87236 | 6.88913 | 17896 ft | 392 kts | 220° |
| 2026-05-07 19:30 | 8.85184 | 6.87076 | 18390 ft | 395 kts | 220° |
| 2026-05-07 19:31 | 8.83120 | 6.85231 | 18849 ft | 398 kts | 220° |
| 2026-05-07 19:31 | 8.81036 | 6.83370 | 19301 ft | 401 kts | 220° |
| 2026-05-07 19:31 | 8.78943 | 6.81500 | 19745 ft | 404 kts | 220° |
| 2026-05-07 19:31 | 8.76826 | 6.79614 | 20182 ft | 407 kts | 220° |
| 2026-05-07 19:32 | 8.74695 | 6.77716 | 20629 ft | 410 kts | 220° |
| 2026-05-07 19:32 | 8.72544 | 6.75799 | 21078 ft | 413 kts | 220° |
| 2026-05-07 19:32 | 8.70384 | 6.73873 | 21518 ft | 416 kts | 220° |
| 2026-05-07 19:32 | 8.68204 | 6.71932 | 21960 ft | 419 kts | 220° |
| 2026-05-07 19:33 | 8.66006 | 6.69977 | 22395 ft | 422 kts | 220° |
| 2026-05-07 19:33 | 8.63795 | 6.68010 | 22829 ft | 425 kts | 220° |
| 2026-05-07 19:33 | 8.61573 | 6.66028 | 23249 ft | 428 kts | 220° |
| 2026-05-07 19:33 | 8.59334 | 6.64028 | 23616 ft | 431 kts | 220° |
| 2026-05-07 19:34 | 8.57079 | 6.62013 | 23963 ft | 434 kts | 220° |
| 2026-05-07 19:34 | 8.54845 | 6.60019 | 24305 ft | 436 kts | 220° |
| 2026-05-07 19:34 | 8.52564 | 6.57985 | 24647 ft | 438 kts | 220° |
| 2026-05-07 19:34 | 8.50273 | 6.55946 | 24985 ft | 440 kts | 220° |
| 2026-05-07 19:35 | 8.47973 | 6.53896 | 25318 ft | 443 kts | 220° |
| 2026-05-07 19:35 | 8.45655 | 6.51828 | 25650 ft | 445 kts | 220° |
| 2026-05-07 19:35 | 8.43332 | 6.49758 | 25980 ft | 447 kts | 220° |
| 2026-05-07 19:35 | 8.41005 | 6.47665 | 26296 ft | 449 kts | 223° |
| 2026-05-07 19:36 | 8.38925 | 6.45306 | 26614 ft | 452 kts | 233° |
| 2026-05-07 19:36 | 8.37248 | 6.42610 | 26924 ft | 454 kts | 242° |
| 2026-05-07 19:36 | 8.35770 | 6.39782 | 27211 ft | 457 kts | 242° |
| 2026-05-07 19:36 | 8.34275 | 6.36946 | 27521 ft | 459 kts | 242° |
| 2026-05-07 19:37 | 8.32766 | 6.34100 | 27810 ft | 461 kts | 242° |
| 2026-05-07 19:37 | 7.22556 | 4.28417 | 28594 ft | 463 kts | 263° |
| 2026-05-07 19:37 | 7.22551 | 4.28383 | 28586 ft | 465 kts | 263° |
| 2026-05-07 19:38 | 7.22249 | 4.25180 | 28892 ft | 466 kts | 266° |
| 2026-05-07 19:38 | 7.21948 | 4.21923 | 29191 ft | 468 kts | 264° |
| 2026-05-07 19:38 | 7.21549 | 4.18664 | 29469 ft | 470 kts | 262° |
| 2026-05-07 19:38 | 7.21099 | 4.15393 | 29392 ft | 470 kts | 262° |
| 2026-05-07 19:39 | 7.20646 | 4.12180 | 29169 ft | 457 kts | 262° |
| 2026-05-07 19:39 | 7.20215 | 4.09041 | 28397 ft | 446 kts | 262° |
| 2026-05-07 19:39 | 7.19815 | 4.05967 | 27546 ft | 439 kts | 263° |
| 2026-05-07 19:39 | 7.19442 | 4.02934 | 26688 ft | 433 kts | 263° |
| 2026-05-07 19:40 | 7.19087 | 3.99947 | 25861 ft | 428 kts | 263° |
| 2026-05-07 19:40 | 7.18741 | 3.96990 | 25064 ft | 422 kts | 263° |
| 2026-05-07 19:40 | 7.18397 | 3.94068 | 24295 ft | 417 kts | 263° |
| 2026-05-07 19:40 | 7.18053 | 3.91185 | 23532 ft | 413 kts | 263° |
| 2026-05-07 19:41 | 7.17710 | 3.88328 | 22674 ft | 408 kts | 263° |
| 2026-05-07 19:41 | 7.17369 | 3.85505 | 21858 ft | 403 kts | 263° |
| 2026-05-07 19:41 | 7.17031 | 3.82724 | 21095 ft | 401 kts | 263° |
| 2026-05-07 19:41 | 7.16693 | 3.79940 | 20670 ft | 398 kts | 263° |
| 2026-05-07 19:42 | 7.16358 | 3.77197 | 20283 ft | 394 kts | 263° |
| 2026-05-07 19:42 | 7.16025 | 3.74470 | 19872 ft | 391 kts | 263° |
| 2026-05-07 19:42 | 7.15696 | 3.71761 | 19461 ft | 388 kts | 263° |
| 2026-05-07 19:42 | 7.15368 | 3.69071 | 19058 ft | 385 kts | 263° |
| 2026-05-07 19:43 | 7.15042 | 3.66401 | 18666 ft | 382 kts | 262° |
| 2026-05-07 19:43 | 7.14719 | 3.63756 | 18281 ft | 380 kts | 262° |
| 2026-05-07 19:43 | 7.14397 | 3.61120 | 17843 ft | 378 kts | 262° |
| 2026-05-07 19:43 | 7.13992 | 3.58515 | 17429 ft | 374 kts | 252° |
| 2026-05-07 19:44 | 7.12864 | 3.56235 | 17304 ft | 358 kts | 229° |
| 2026-05-07 19:44 | 7.11054 | 3.54613 | 17178 ft | 342 kts | 207° |
| 2026-05-07 19:44 | 7.08915 | 3.53704 | 16993 ft | 329 kts | 190° |
| 2026-05-07 19:44 | 7.06690 | 3.53558 | 16691 ft | 317 kts | 166° |
| 2026-05-07 19:45 | 7.04709 | 3.54322 | 16356 ft | 307 kts | 141° |
| 2026-05-07 19:45 | 7.03224 | 3.55813 | 15991 ft | 301 kts | 127° |
| 2026-05-07 19:45 | 7.01898 | 3.57445 | 15654 ft | 300 kts | 127° |
| 2026-05-07 19:45 | 7.00572 | 3.59067 | 15354 ft | 299 kts | 130° |
| 2026-05-07 19:46 | 6.98969 | 3.60387 | 15008 ft | 298 kts | 145° |
| 2026-05-07 19:46 | 6.97198 | 3.61461 | 14426 ft | 296 kts | 144° |
| 2026-05-07 19:46 | 6.95439 | 3.62510 | 14005 ft | 290 kts | 144° |
| 2026-05-07 19:46 | 6.93679 | 3.63555 | 13095 ft | 299 kts | 144° |
| 2026-05-07 19:47 | 6.91781 | 3.64507 | 12112 ft | 312 kts | 158° |
| 2026-05-07 19:47 | 6.89618 | 3.64979 | 11169 ft | 322 kts | 165° |
| 2026-05-07 19:47 | 6.87867 | 3.65305 | 10443 ft | 326 kts | 166° |
| 2026-05-07 19:47 | 6.85576 | 3.65276 | 9506 ft | 338 kts | 192° |
| 2026-05-07 19:48 | 6.83476 | 3.64175 | 8423 ft | 348 kts | 220° |
| 2026-05-07 19:48 | 6.82047 | 3.62194 | 7218 ft | 357 kts | 248° |
| 2026-05-07 19:48 | 6.81552 | 3.59748 | 5791 ft | 363 kts | 268° |
| 2026-05-07 19:48 | 6.81712 | 3.57178 | 4386 ft | 368 kts | 277° |
| 2026-05-07 19:49 | 6.82110 | 3.54642 | 3658 ft | 364 kts | 278° |
| 2026-05-07 19:49 | 6.82512 | 3.52169 | 3304 ft | 349 kts | 278° |
| 2026-05-07 19:49 | 6.82822 | 3.49895 | 3129 ft | 316 kts | 273° |
| 2026-05-07 19:49 | 6.82897 | 3.47770 | 3046 ft | 283 kts | 268° |
| 2026-05-07 19:50 | 6.82851 | 3.45898 | 3043 ft | 254 kts | 266° |
| 2026-05-07 19:50 | 6.82775 | 3.44179 | 2644 ft | 249 kts | 265° |
| 2026-05-07 19:50 | 6.82699 | 3.42449 | 2550 ft | 238 kts | 266° |
| 2026-05-07 19:50 | 6.82626 | 3.40882 | 2556 ft | 211 kts | 260° |
| 2026-05-07 19:51 | 6.82384 | 3.39735 | 2561 ft | 216 kts | 250° |
| 2026-05-07 19:52 | 6.82163 | 3.39125 | 2555 ft | 214 kts | 245° |
| 2026-05-07 19:52 | 6.81417 | 3.37794 | 2565 ft | 207 kts | 232° |
| 2026-05-07 19:53 | 6.80626 | 3.36704 | 2594 ft | 182 kts | 233° |
| 2026-05-07 19:53 | 6.79889 | 3.35672 | 2581 ft | 182 kts | 233° |
| 2026-05-07 19:53 | 6.79165 | 3.34653 | 2570 ft | 181 kts | 234° |
| 2026-05-07 19:53 | 6.78400 | 3.33640 | 2563 ft | 182 kts | 225° |
| 2026-05-07 19:54 | 6.77367 | 3.32925 | 2567 ft | 181 kts | 203° |
| 2026-05-07 19:54 | 6.76148 | 3.32677 | 2564 ft | 181 kts | 181° |
| 2026-05-07 19:54 | 6.74891 | 3.32695 | 2563 ft | 179 kts | 180° |
| 2026-05-07 19:54 | 6.73649 | 3.32709 | 2560 ft | 174 kts | 180° |
| 2026-05-07 19:55 | 6.72526 | 3.32723 | 2502 ft | 152 kts | 180° |
| 2026-05-07 19:55 | 6.71466 | 3.32736 | 2361 ft | 152 kts | 181° |
| 2026-05-07 19:55 | 6.70419 | 3.32749 | 2192 ft | 150 kts | 180° |
| 2026-05-07 19:55 | 6.69369 | 3.32762 | 2005 ft | 151 kts | 181° |
| 2026-05-07 19:56 | 6.68328 | 3.32775 | 1818 ft | 149 kts | 180° |
| 2026-05-07 19:56 | 6.67291 | 3.32788 | 1627 ft | 149 kts | 181° |
| 2026-05-07 19:56 | 6.66251 | 3.32801 | 1431 ft | 150 kts | 181° |
| 2026-05-07 19:56 | 6.65211 | 3.32814 | 1245 ft | 148 kts | 180° |
| 2026-05-07 19:57 | 6.64176 | 3.32827 | 1047 ft | 151 kts | 180° |
| 2026-05-07 19:57 | 6.63120 | 3.32840 | 842 ft | 151 kts | 179° |
| 2026-05-07 19:57 | 6.62090 | 3.32853 | 658 ft | 150 kts | 178° |
| 2026-05-07 19:57 | 6.61047 | 3.32866 | 457 ft | 151 kts | 179° |
| 2026-05-07 19:58 | 6.60011 | 3.32879 | 260 ft | 147 kts | 179° |
| 2026-05-07 19:58 | 6.59038 | 3.32892 | 136 ft | 130 kts | 179° |
| 2026-05-07 19:58 | 6.58305 | 3.32903 | 119 ft | 81 kts | 180° |
| 2026-05-07 19:58 | 6.57863 | 3.32909 | 107 ft | 43 kts | 179° |
| 2026-05-07 19:59 | 6.57806 | 3.32909 | 107 ft | 7 kts | 181° |
| 2026-05-07 19:59 | 6.57742 | 3.32908 | 107 ft | 10 kts | 180° |
| 2026-05-07 19:59 | 6.57669 | 3.32916 | 106 ft | 12 kts | 155° |
| 2026-05-07 19:59 | 6.57649 | 3.33000 | 102 ft | 14 kts | 88° |
| 2026-05-07 20:00 | 6.57663 | 3.33051 | 101 ft | 7 kts | 40° |
| 2026-05-07 20:00 | 6.57698 | 3.33053 | 102 ft | 4 kts | 354° |
| 2026-05-07 20:00 | 6.57714 | 3.33051 | 101 ft | 1 kts | 354° |
| 2026-05-07 20:00 | 6.57731 | 3.33050 | 103 ft | 7 kts | 355° |
| 2026-05-07 20:01 | 6.57834 | 3.33048 | 107 ft | 22 kts | 359° |
| 2026-05-07 20:01 | 6.58034 | 3.33050 | 113 ft | 35 kts | 359° |
| 2026-05-07 20:01 | 6.58281 | 3.33050 | 120 ft | 35 kts | 1° |
| 2026-05-07 20:01 | 6.58517 | 3.33051 | 127 ft | 34 kts | 359° |
| 2026-05-07 20:02 | 6.58631 | 3.33042 | 123 ft | 10 kts | 357° |
| 2026-05-07 20:02 | 6.58690 | 3.33043 | 129 ft | 8 kts | 2° |
| 2026-05-07 20:02 | 6.58735 | 3.33044 | 127 ft | 5 kts | 357° |
| 2026-05-07 20:02 | 6.58784 | 3.33041 | 130 ft | 12 kts | 358° |
| 2026-05-07 20:03 | 6.58904 | 3.33040 | 132 ft | 19 kts | 358° |
| 2026-05-07 20:03 | 6.59033 | 3.33039 | 133 ft | 18 kts | 356° |
| 2026-05-07 20:03 | 6.59084 | 3.33037 | 133 ft | 0 kts | 358° |
| 2026-05-07 20:03 | 6.59085 | 3.33037 | 133 ft | 1 kts | 358° |
| 2026-05-07 20:04 | 6.59106 | 3.33047 | 133 ft | 3 kts | 37° |
| 2026-05-07 20:04 | 6.59120 | 3.33065 | 133 ft | 3 kts | 59° |
| 2026-05-07 20:04 | 6.59130 | 3.33087 | 132 ft | 3 kts | 65° |
| 2026-05-07 20:04 | 6.59131 | 3.33089 | 132 ft | 0 kts | 65° |
| 2026-05-07 20:05 | 6.59133 | 3.33095 | 132 ft | 0 kts | 65° |